Time;durP1;ratioP1;P1;durP2;ratioP2;P2;SDS_P1;SDS_P2;PMS_P1;PMS_P2;Temp;Humidity;BMP_temperature;BMP_pressure;BME280_temperature;BME280_humidity;BME280_pressure;Samples;Min_cycle;Max_cycle;Signal;HPM_P1;HPM_P2
2023/07/28 00:00:12;;;;;;;8.23;5.47;;;;;;;;;;5039806;28;20777;-60
2023/07/28 00:02:40;;;;;;;8.18;5.40;;;;;;;;;;5040148;28;20419;-60
2023/07/28 00:05:07;;;;;;;7.35;5.25;;;;;;;;;;5038217;28;20530;-61
2023/07/28 00:07:36;;;;;;;8.88;6.03;;;;;;;;;;5039273;28;20426;-60
2023/07/28 00:10:03;;;;;;;9.57;6.10;;;;;;;;;;5040576;28;20426;-61
2023/07/28 00:12:30;;;;;;;7.90;5.45;;;;;;;;;;5038924;28;20422;-60
2023/07/28 00:14:57;;;;;;;8.27;5.35;;;;;;;;;;5038123;28;20908;-61
2023/07/28 00:17:24;;;;;;;8.88;5.57;;;;;;;;;;5045093;28;20817;-60
2023/07/28 00:19:52;;;;;;;8.23;5.38;;;;;;;;;;5032551;28;20419;-60
2023/07/28 00:22:19;;;;;;;8.13;5.32;;;;;;;;;;5036993;28;20423;-61
2023/07/28 00:24:46;;;;;;;9.95;5.50;;;;;;;;;;5041252;28;20464;-61
2023/07/28 00:27:14;;;;;;;9.38;5.57;;;;;;;;;;5037929;28;20492;-57
2023/07/28 00:29:41;;;;;;;8.47;5.03;;;;;;;;;;5042866;28;20517;-60
2023/07/28 00:32:09;;;;;;;8.88;5.32;;;;;;;;;;5040984;28;20500;-61
2023/07/28 00:34:36;;;;;;;5.67;4.60;;;;;;;;;;5043117;28;20451;-60
2023/07/28 00:37:04;;;;;;;8.10;5.22;;;;;;;;;;5035478;28;20413;-61
2023/07/28 00:39:31;;;;;;;7.07;5.18;;;;;;;;;;5037988;28;20475;-60
2023/07/28 00:41:58;;;;;;;8.02;4.97;;;;;;;;;;5038034;28;20413;-59
2023/07/28 00:44:25;;;;;;;6.47;5.07;;;;;;;;;;5039999;28;20430;-60
2023/07/28 00:46:52;;;;;;;6.57;5.13;;;;;;;;;;5044329;28;20420;-60
2023/07/28 00:49:19;;;;;;;7.03;5.07;;;;;;;;;;5040610;28;20438;-60
2023/07/28 00:51:46;;;;;;;6.63;4.90;;;;;;;;;;5039866;28;20413;-60
2023/07/28 00:54:15;;;;;;;5.70;4.50;;;;;;;;;;5038644;28;20422;-61
2023/07/28 00:56:42;;;;;;;6.15;4.00;;;;;;;;;;5039550;28;20465;-59
2023/07/28 00:59:09;;;;;;;6.50;4.40;;;;;;;;;;5038533;28;20469;-60
2023/07/28 01:01:36;;;;;;;9.63;4.60;;;;;;;;;;5039391;28;20836;-60
2023/07/28 01:04:03;;;;;;;6.13;4.40;;;;;;;;;;5038084;28;20419;-60
2023/07/28 01:06:35;;;;;;;6.20;4.35;;;;;;;;;;5037986;28;20452;-60
2023/07/28 01:09:04;;;;;;;5.35;4.15;;;;;;;;;;5041279;28;20932;-60
2023/07/28 01:11:33;;;;;;;6.97;3.90;;;;;;;;;;5040937;28;20502;-60
2023/07/28 01:14:00;;;;;;;5.78;3.78;;;;;;;;;;5039134;28;20460;-61
2023/07/28 01:16:27;;;;;;;5.97;4.47;;;;;;;;;;5039532;28;20824;-58
2023/07/28 01:18:54;;;;;;;5.68;3.83;;;;;;;;;;5040393;28;20417;-61
2023/07/28 01:21:22;;;;;;;6.07;3.75;;;;;;;;;;5040541;28;20409;-60
2023/07/28 01:23:57;;;;;;;4.70;3.92;;;;;;;;;;5038633;28;20909;-61
2023/07/28 01:26:31;;;;;;;5.05;4.10;;;;;;;;;;5038356;28;20514;-60
2023/07/28 01:28:59;;;;;;;7.65;5.07;;;;;;;;;;5042501;28;20475;-60
2023/07/28 01:31:26;;;;;;;7.13;4.80;;;;;;;;;;5037502;28;20411;-60
2023/07/28 01:33:53;;;;;;;7.18;4.95;;;;;;;;;;5039183;28;20422;-60
2023/07/28 01:36:20;;;;;;;9.57;4.80;;;;;;;;;;5036124;28;20908;-60
2023/07/28 01:38:47;;;;;;;7.30;5.10;;;;;;;;;;5038400;28;20447;-60
2023/07/28 01:41:14;;;;;;;8.35;5.20;;;;;;;;;;5039805;28;20469;-60
2023/07/28 01:43:43;;;;;;;8.65;5.47;;;;;;;;;;5040430;28;20449;-60
2023/07/28 01:46:10;;;;;;;8.57;5.70;;;;;;;;;;5032249;28;20510;-60
2023/07/28 01:48:37;;;;;;;10.43;5.57;;;;;;;;;;5037811;28;20484;-58
2023/07/28 01:51:04;;;;;;;7.37;4.90;;;;;;;;;;5041112;28;20830;-61
2023/07/28 01:53:31;;;;;;;6.30;5.30;;;;;;;;;;5036433;28;20415;-59
2023/07/28 01:55:58;;;;;;;6.60;5.13;;;;;;;;;;5039648;28;20423;-60
2023/07/28 01:58:25;;;;;;;6.20;5.00;;;;;;;;;;5039687;28;20413;-60
2023/07/28 02:00:53;;;;;;;6.43;4.90;;;;;;;;;;5041138;28;20899;-60
2023/07/28 02:03:20;;;;;;;7.30;5.20;;;;;;;;;;5038240;28;20539;-61
2023/07/28 02:05:47;;;;;;;5.80;4.60;;;;;;;;;;5041927;28;20417;-58
2023/07/28 02:08:14;;;;;;;8.67;4.93;;;;;;;;;;5039606;28;20526;-61
2023/07/28 02:10:41;;;;;;;7.22;5.00;;;;;;;;;;5047567;28;20413;-59
2023/07/28 02:13:11;;;;;;;6.03;4.60;;;;;;;;;;5041428;28;20823;-60
2023/07/28 02:15:38;;;;;;;5.57;3.83;;;;;;;;;;5046490;28;21108;-59
2023/07/28 02:18:06;;;;;;;5.47;4.10;;;;;;;;;;5050810;28;20421;-60
2023/07/28 02:20:35;;;;;;;4.10;3.70;;;;;;;;;;5044631;28;20826;-57
2023/07/28 02:23:02;;;;;;;4.47;3.60;;;;;;;;;;5044249;28;20420;-60
2023/07/28 02:25:29;;;;;;;5.38;3.80;;;;;;;;;;5041700;28;20431;-60
2023/07/28 02:27:56;;;;;;;5.38;3.75;;;;;;;;;;5037966;28;20526;-60
2023/07/28 02:30:23;;;;;;;5.38;3.80;;;;;;;;;;5043222;28;20427;-59
2023/07/28 02:32:50;;;;;;;4.50;3.55;;;;;;;;;;5040408;28;20921;-57
2023/07/28 02:35:18;;;;;;;4.68;3.50;;;;;;;;;;5043099;28;20466;-60
2023/07/28 02:37:45;;;;;;;6.05;4.05;;;;;;;;;;5043367;28;20418;-60
2023/07/28 02:40:13;;;;;;;4.33;3.53;;;;;;;;;;5040893;28;20464;-60
2023/07/28 02:42:40;;;;;;;3.70;3.28;;;;;;;;;;5042101;28;20419;-60
2023/07/28 02:45:09;;;;;;;3.88;3.50;;;;;;;;;;5042585;28;20489;-60
2023/07/28 02:47:36;;;;;;;4.07;3.22;;;;;;;;;;5042666;28;20428;-59
2023/07/28 02:50:04;;;;;;;4.82;3.50;;;;;;;;;;5045209;28;20453;-60
2023/07/28 02:52:32;;;;;;;3.97;3.47;;;;;;;;;;5036149;28;20482;-59
2023/07/28 02:54:59;;;;;;;4.30;3.35;;;;;;;;;;5040640;28;20899;-60
2023/07/28 02:57:26;;;;;;;4.50;2.80;;;;;;;;;;5042458;28;20431;-60
2023/07/28 02:59:53;;;;;;;5.38;3.30;;;;;;;;;;5052342;28;20425;-60
2023/07/28 03:02:20;;;;;;;3.72;3.40;;;;;;;;;;5037945;28;20922;-61
2023/07/28 03:04:47;;;;;;;5.43;3.40;;;;;;;;;;5036942;28;20407;-60
2023/07/28 03:07:14;;;;;;;3.90;3.50;;;;;;;;;;5038822;28;20549;-61
2023/07/28 03:09:43;;;;;;;5.30;3.00;;;;;;;;;;5039430;28;20441;-60
2023/07/28 03:12:10;;;;;;;4.05;3.47;;;;;;;;;;5037109;28;20419;-61
2023/07/28 03:14:37;;;;;;;4.57;3.20;;;;;;;;;;5038895;28;20417;-61
2023/07/28 03:17:04;;;;;;;3.97;3.35;;;;;;;;;;5042882;28;20851;-61
2023/07/28 03:19:31;;;;;;;4.23;3.40;;;;;;;;;;5040944;28;20427;-61
2023/07/28 03:21:58;;;;;;;4.10;3.20;;;;;;;;;;5038086;28;20444;-61
2023/07/28 03:24:25;;;;;;;4.40;2.90;;;;;;;;;;5038788;28;20443;-61
2023/07/28 03:26:54;;;;;;;4.53;2.90;;;;;;;;;;5042888;28;20520;-61
2023/07/28 03:29:21;;;;;;;5.95;3.10;;;;;;;;;;5038988;28;20487;-61
2023/07/28 03:31:48;;;;;;;2.90;2.60;;;;;;;;;;5041070;28;20483;-61
2023/07/28 03:34:15;;;;;;;3.80;2.72;;;;;;;;;;5041989;28;20421;-60
2023/07/28 03:36:41;;;;;;;2.72;2.40;;;;;;;;;;5039759;28;20417;-58
2023/07/28 03:39:08;;;;;;;4.00;2.72;;;;;;;;;;5040741;28;20417;-60
2023/07/28 03:41:36;;;;;;;3.47;2.60;;;;;;;;;;5041015;28;20493;-61
2023/07/28 03:44:04;;;;;;;2.55;2.08;;;;;;;;;;5040375;28;20451;-60
2023/07/28 03:46:31;;;;;;;5.30;2.38;;;;;;;;;;5041069;28;20477;-61
2023/07/28 03:49:00;;;;;;;3.38;2.53;;;;;;;;;;5040368;28;20967;-60
2023/07/28 03:51:27;;;;;;;3.17;2.40;;;;;;;;;;5039952;28;20445;-60
2023/07/28 03:53:53;;;;;;;3.23;2.43;;;;;;;;;;5039879;28;20421;-61
2023/07/28 03:56:20;;;;;;;3.05;2.50;;;;;;;;;;5039620;28;20816;-61
2023/07/28 03:58:47;;;;;;;2.47;2.05;;;;;;;;;;5035745;28;20423;-61
2023/07/28 04:01:16;;;;;;;4.27;2.77;;;;;;;;;;5041396;28;20517;-61
2023/07/28 04:03:43;;;;;;;3.85;2.35;;;;;;;;;;5039511;28;20789;-61
2023/07/28 04:06:12;;;;;;;3.00;2.38;;;;;;;;;;5040178;28;20434;-61
2023/07/28 04:08:39;;;;;;;4.80;3.03;;;;;;;;;;5041035;28;20513;-61
2023/07/28 04:11:05;;;;;;;5.55;4.43;;;;;;;;;;5043400;28;20413;-62
2023/07/28 04:13:32;;;;;;;3.30;2.58;;;;;;;;;;5039238;28;20927;-61
2023/07/28 04:15:59;;;;;;;4.20;2.70;;;;;;;;;;5040871;28;20467;-62
2023/07/28 04:18:28;;;;;;;2.92;2.38;;;;;;;;;;5039980;28;21187;-62
2023/07/28 04:20:55;;;;;;;4.27;2.37;;;;;;;;;;5036940;28;20491;-61
2023/07/28 04:23:22;;;;;;;2.88;2.42;;;;;;;;;;5039506;28;20903;-62
2023/07/28 04:25:49;;;;;;;3.72;2.53;;;;;;;;;;5040679;28;20426;-61
2023/07/28 04:28:16;;;;;;;3.20;2.50;;;;;;;;;;5038901;28;20772;-62
2023/07/28 04:30:43;;;;;;;3.63;2.60;;;;;;;;;;5043931;28;20796;-60
2023/07/28 04:33:10;;;;;;;4.07;2.60;;;;;;;;;;5047299;28;20467;-62
2023/07/28 04:35:38;;;;;;;2.70;2.40;;;;;;;;;;5043872;28;20487;-61
2023/07/28 04:38:05;;;;;;;2.92;1.95;;;;;;;;;;5036291;28;20500;-61
2023/07/28 04:40:32;;;;;;;4.53;2.35;;;;;;;;;;5043600;28;20873;-61
2023/07/28 04:42:59;;;;;;;3.42;2.38;;;;;;;;;;5042401;28;20413;-60
2023/07/28 04:45:26;;;;;;;3.22;1.95;;;;;;;;;;5037666;28;20828;-61
2023/07/28 04:47:53;;;;;;;2.55;1.65;;;;;;;;;;5038878;28;20422;-60
2023/07/28 04:50:20;;;;;;;2.08;1.85;;;;;;;;;;5041398;28;20429;-61
2023/07/28 04:52:48;;;;;;;2.10;1.90;;;;;;;;;;5040655;28;20567;-62
2023/07/28 04:55:16;;;;;;;3.00;1.80;;;;;;;;;;5038864;28;20422;-61
2023/07/28 04:57:43;;;;;;;2.30;1.77;;;;;;;;;;5039154;28;20468;-62
2023/07/28 05:00:10;;;;;;;1.60;1.50;;;;;;;;;;5039416;28;20890;-61
2023/07/28 05:02:37;;;;;;;3.85;1.75;;;;;;;;;;5039154;28;20411;-61
2023/07/28 05:05:04;;;;;;;1.77;1.40;;;;;;;;;;5039764;28;20418;-61
2023/07/28 05:07:31;;;;;;;1.70;1.60;;;;;;;;;;5028222;28;20422;-63
2023/07/28 05:10:00;;;;;;;2.67;1.60;;;;;;;;;;5039602;28;20426;-61
2023/07/28 05:12:27;;;;;;;1.70;1.50;;;;;;;;;;5042493;28;20978;-60
2023/07/28 05:14:54;;;;;;;2.40;1.50;;;;;;;;;;5044015;28;20414;-62
2023/07/28 05:17:21;;;;;;;3.00;1.70;;;;;;;;;;5047087;28;20426;-61
2023/07/28 05:19:48;;;;;;;2.47;1.60;;;;;;;;;;5040730;28;20465;-62
2023/07/28 05:22:15;;;;;;;2.72;1.77;;;;;;;;;;5040075;28;20430;-61
2023/07/28 05:24:43;;;;;;;2.63;2.08;;;;;;;;;;5041585;28;20425;-61
2023/07/28 05:27:12;;;;;;;2.40;2.03;;;;;;;;;;5043187;28;20417;-61
2023/07/28 05:29:39;;;;;;;2.50;2.10;;;;;;;;;;5041550;28;20434;-61
2023/07/28 05:32:07;;;;;;;3.22;2.25;;;;;;;;;;5043559;28;21080;-61
2023/07/28 05:34:34;;;;;;;2.60;1.90;;;;;;;;;;5041298;28;20413;-62
2023/07/28 05:37:01;;;;;;;4.15;2.22;;;;;;;;;;5044207;28;20423;-61
2023/07/28 05:39:28;;;;;;;3.42;2.22;;;;;;;;;;5037104;28;20427;-63
2023/07/28 05:41:55;;;;;;;3.25;2.20;;;;;;;;;;5044488;28;20478;-61
2023/07/28 05:44:23;;;;;;;5.20;2.80;;;;;;;;;;5040041;28;20961;-63
2023/07/28 05:46:50;;;;;;;4.55;2.22;;;;;;;;;;5042888;28;20439;-61
2023/07/28 05:49:17;;;;;;;4.32;2.38;;;;;;;;;;5041422;28;20905;-61
2023/07/28 05:51:44;;;;;;;2.65;2.22;;;;;;;;;;5041244;28;20413;-62
2023/07/28 05:54:12;;;;;;;3.72;2.55;;;;;;;;;;5047460;28;20879;-61
2023/07/28 05:56:39;;;;;;;4.18;2.40;;;;;;;;;;5040202;28;20437;-62
2023/07/28 05:59:06;;;;;;;3.28;2.78;;;;;;;;;;5042309;28;20903;-62
2023/07/28 06:01:35;;;;;;;4.03;2.83;;;;;;;;;;5043972;28;20417;-61
2023/07/28 06:04:02;;;;;;;4.97;3.03;;;;;;;;;;5047852;28;20413;-62
2023/07/28 06:06:29;;;;;;;4.75;3.60;;;;;;;;;;5043177;28;20469;-61
2023/07/28 06:08:56;;;;;;;5.68;3.63;;;;;;;;;;5047233;28;20949;-61
2023/07/28 06:11:23;;;;;;;4.70;3.40;;;;;;;;;;5043775;28;20850;-61
2023/07/28 06:13:50;;;;;;;4.55;3.78;;;;;;;;;;5040635;28;20492;-61
2023/07/28 06:16:17;;;;;;;5.75;3.80;;;;;;;;;;5045800;28;20457;-61
2023/07/28 06:18:45;;;;;;;5.75;3.72;;;;;;;;;;5043176;28;20474;-61
2023/07/28 06:21:12;;;;;;;5.03;3.53;;;;;;;;;;5041914;28;20832;-59
2023/07/28 06:23:39;;;;;;;4.70;3.17;;;;;;;;;;5046334;28;20431;-61
2023/07/28 06:26:06;;;;;;;4.10;2.90;;;;;;;;;;5046535;28;20421;-61
2023/07/28 06:28:33;;;;;;;3.45;2.70;;;;;;;;;;5045469;28;20415;-61
2023/07/28 06:31:00;;;;;;;3.83;2.70;;;;;;;;;;5044420;28;20429;-61
2023/07/28 06:33:30;;;;;;;4.28;3.33;;;;;;;;;;5036912;28;20904;-61
2023/07/28 06:35:58;;;;;;;6.10;4.03;;;;;;;;;;5041683;28;20417;-61
2023/07/28 06:38:25;;;;;;;5.15;3.67;;;;;;;;;;5030752;28;20483;-62
2023/07/28 06:40:52;;;;;;;7.43;4.53;;;;;;;;;;5040594;28;20417;-62
2023/07/28 06:43:19;;;;;;;8.13;5.43;;;;;;;;;;5036595;28;20467;-61
2023/07/28 06:45:46;;;;;;;10.10;6.57;;;;;;;;;;5042957;28;20417;-60
2023/07/28 06:48:14;;;;;;;11.57;6.95;;;;;;;;;;5037717;28;20910;-61
2023/07/28 06:50:41;;;;;;;11.90;7.60;;;;;;;;;;5043662;28;20421;-60
2023/07/28 06:53:09;;;;;;;9.80;7.05;;;;;;;;;;5039958;28;20413;-59
2023/07/28 06:55:38;;;;;;;10.27;6.30;;;;;;;;;;5038500;28;20423;-61
2023/07/28 06:58:06;;;;;;;9.45;6.45;;;;;;;;;;5046024;28;20433;-61
2023/07/28 07:00:33;;;;;;;10.18;6.53;;;;;;;;;;5041674;28;20430;-62
2023/07/28 07:03:00;;;;;;;9.25;6.50;;;;;;;;;;5045407;28;20483;-62
2023/07/28 07:05:27;;;;;;;9.25;6.65;;;;;;;;;;5041758;28;20832;-62
2023/07/28 07:07:55;;;;;;;9.57;6.63;;;;;;;;;;5047217;28;20449;-62
2023/07/28 07:10:23;;;;;;;9.05;6.07;;;;;;;;;;5041053;28;20996;-63
2023/07/28 07:12:50;;;;;;;9.60;6.32;;;;;;;;;;5041666;28;20429;-63
2023/07/28 07:15:17;;;;;;;9.30;6.53;;;;;;;;;;5038161;28;20469;-63
2023/07/28 07:17:44;;;;;;;10.10;7.27;;;;;;;;;;5036203;28;20510;-62
2023/07/28 07:20:11;;;;;;;11.32;7.00;;;;;;;;;;5040983;28;20409;-62
2023/07/28 07:22:38;;;;;;;10.83;6.33;;;;;;;;;;5038811;28;20422;-62
2023/07/28 07:25:07;;;;;;;9.27;6.15;;;;;;;;;;5040726;28;20424;-62
2023/07/28 07:27:35;;;;;;;10.23;7.22;;;;;;;;;;5038744;28;20915;-63
2023/07/28 07:30:02;;;;;;;8.73;6.30;;;;;;;;;;5043933;28;20433;-62
2023/07/28 07:32:29;;;;;;;8.85;6.57;;;;;;;;;;5035680;28;20429;-62
2023/07/28 07:34:56;;;;;;;9.93;6.32;;;;;;;;;;5032400;28;20426;-62
2023/07/28 07:37:24;;;;;;;10.82;6.65;;;;;;;;;;5037144;28;20434;-62
2023/07/28 07:39:51;;;;;;;9.45;6.57;;;;;;;;;;5034804;28;20878;-63
2023/07/28 07:42:18;;;;;;;10.48;7.70;;;;;;;;;;5040008;28;20481;-62
2023/07/28 07:44:46;;;;;;;15.13;9.93;;;;;;;;;;5037722;28;20474;-61
2023/07/28 07:47:14;;;;;;;16.35;11.10;;;;;;;;;;5042077;28;20420;-61
2023/07/28 07:49:41;;;;;;;14.70;11.27;;;;;;;;;;5042614;28;20419;-61
2023/07/28 07:52:09;;;;;;;15.93;11.32;;;;;;;;;;5041071;28;20433;-62
2023/07/28 07:54:36;;;;;;;18.33;12.67;;;;;;;;;;5038042;28;20632;-66
2023/07/28 07:57:03;;;;;;;16.40;12.32;;;;;;;;;;5046921;28;20405;-68
2023/07/28 07:59:32;;;;;;;18.83;13.07;;;;;;;;;;5041863;28;20456;-68
2023/07/28 08:02:02;;;;;;;18.08;12.88;;;;;;;;;;5042249;28;20424;-67
2023/07/28 08:04:29;;;;;;;22.35;16.08;;;;;;;;;;5040191;28;20433;-66
2023/07/28 08:06:56;;;;;;;23.33;17.10;;;;;;;;;;5047098;28;20921;-63
2023/07/28 08:09:23;;;;;;;23.92;16.83;;;;;;;;;;5038157;28;20508;-63
2023/07/28 08:11:51;;;;;;;23.05;16.70;;;;;;;;;;5042711;28;20436;-63
2023/07/28 08:14:18;;;;;;;18.42;13.57;;;;;;;;;;5037670;28;20775;-63
2023/07/28 08:16:45;;;;;;;17.38;13.18;;;;;;;;;;5040899;28;20440;-64
2023/07/28 08:19:14;;;;;;;12.27;9.13;;;;;;;;;;5036509;28;20496;-65
2023/07/28 08:21:41;;;;;;;9.00;7.10;;;;;;;;;;5040637;28;20414;-65
2023/07/28 08:24:08;;;;;;;6.13;5.03;;;;;;;;;;5038430;28;20459;-65
2023/07/28 08:26:35;;;;;;;6.22;3.90;;;;;;;;;;5035808;28;20423;-61
2023/07/28 08:29:02;;;;;;;4.28;3.30;;;;;;;;;;5043136;28;20823;-63
2023/07/28 08:31:29;;;;;;;4.10;3.00;;;;;;;;;;5023462;28;20437;-65
2023/07/28 08:33:56;;;;;;;4.53;3.07;;;;;;;;;;5026367;28;20482;-62
2023/07/28 08:36:25;;;;;;;5.95;3.90;;;;;;;;;;5034781;28;20426;-62
2023/07/28 08:38:52;;;;;;;6.57;3.88;;;;;;;;;;5039907;28;20449;-64
2023/07/28 08:41:19;;;;;;;4.00;3.05;;;;;;;;;;5040543;28;20415;-66
2023/07/28 08:43:46;;;;;;;4.43;3.75;;;;;;;;;;5038630;28;20444;-62
2023/07/28 08:46:14;;;;;;;4.95;3.20;;;;;;;;;;5038315;28;20421;-64
2023/07/28 08:48:41;;;;;;;3.78;2.83;;;;;;;;;;5036323;28;20454;-62
2023/07/28 08:51:08;;;;;;;6.07;3.20;;;;;;;;;;5041302;28;20429;-63
2023/07/28 08:53:37;;;;;;;4.30;3.45;;;;;;;;;;5033386;28;20772;-64
2023/07/28 08:56:04;;;;;;;4.97;3.80;;;;;;;;;;5043368;28;20479;-63
2023/07/28 08:58:31;;;;;;;4.85;3.97;;;;;;;;;;5038589;28;20423;-62
2023/07/28 09:01:01;;;;;;;5.55;3.38;;;;;;;;;;5039221;28;20409;-62
2023/07/28 09:03:28;;;;;;;4.30;3.15;;;;;;;;;;5035866;28;20509;-61
2023/07/28 09:06:00;;;;;;;3.20;2.40;;;;;;;;;;5034404;28;20425;-63
2023/07/28 09:08:27;;;;;;;3.15;2.20;;;;;;;;;;5035765;28;20929;-63
2023/07/28 09:10:56;;;;;;;2.60;1.90;;;;;;;;;;5037799;28;20434;-64
2023/07/28 09:13:23;;;;;;;2.83;1.90;;;;;;;;;;5032177;28;20999;-63
2023/07/28 09:15:50;;;;;;;2.40;1.45;;;;;;;;;;5038917;28;20469;-63
2023/07/28 09:18:18;;;;;;;2.30;1.50;;;;;;;;;;5033988;28;20523;-61
2023/07/28 09:20:45;;;;;;;2.03;1.23;;;;;;;;;;5033253;28;20418;-58
2023/07/28 09:23:15;;;;;;;1.33;1.10;;;;;;;;;;5036404;28;20423;-61
2023/07/28 09:25:42;;;;;;;1.60;1.00;;;;;;;;;;5037335;28;20427;-62
2023/07/28 09:28:11;;;;;;;0.90;0.80;;;;;;;;;;5035522;28;20518;-61
2023/07/28 09:30:45;;;;;;;1.00;0.90;;;;;;;;;;5035570;28;20430;-62
2023/07/28 09:33:12;;;;;;;1.57;1.17;;;;;;;;;;5039380;28;20497;-62
2023/07/28 09:35:49;;;;;;;2.30;1.40;;;;;;;;;;5043051;28;20422;-62
2023/07/28 09:38:16;;;;;;;1.92;1.30;;;;;;;;;;5038490;28;20413;-59
2023/07/28 09:40:43;;;;;;;2.45;1.50;;;;;;;;;;5042173;28;20468;-61
2023/07/28 09:43:11;;;;;;;1.85;1.30;;;;;;;;;;5040010;28;20479;-60
2023/07/28 09:45:38;;;;;;;2.15;1.40;;;;;;;;;;5043349;28;20441;-60
2023/07/28 09:48:07;;;;;;;2.22;1.50;;;;;;;;;;5034196;28;20409;-59
2023/07/28 09:50:34;;;;;;;2.15;1.85;;;;;;;;;;5033107;28;20500;-59
2023/07/28 09:53:03;;;;;;;3.83;2.10;;;;;;;;;;5037647;28;20789;-58
2023/07/28 09:55:31;;;;;;;3.13;2.30;;;;;;;;;;5045659;28;20895;-59
2023/07/28 09:58:00;;;;;;;2.60;2.40;;;;;;;;;;5042644;28;20482;-60
2023/07/28 10:00:29;;;;;;;3.97;2.53;;;;;;;;;;5038258;28;20421;-62
2023/07/28 10:02:58;;;;;;;3.88;2.80;;;;;;;;;;5033389;28;20430;-62
2023/07/28 10:05:26;;;;;;;3.17;2.50;;;;;;;;;;5043342;28;20499;-63
2023/07/28 10:07:53;;;;;;;2.63;2.33;;;;;;;;;;5029747;28;20435;-61
2023/07/28 10:10:20;;;;;;;3.95;2.67;;;;;;;;;;5036980;28;20427;-63
2023/07/28 10:12:48;;;;;;;5.10;2.50;;;;;;;;;;5046375;28;20433;-62
2023/07/28 10:15:16;;;;;;;3.75;2.80;;;;;;;;;;5041054;28;20608;-62
2023/07/28 10:17:49;;;;;;;2.67;2.47;;;;;;;;;;5044236;28;20448;-62
2023/07/28 10:20:29;;;;;;;3.90;2.63;;;;;;;;;;5039710;28;20937;-61
2023/07/28 10:23:03;;;;;;;4.43;3.20;;;;;;;;;;5040915;28;20904;-61
2023/07/28 10:25:33;;;;;;;3.07;2.83;;;;;;;;;;5039462;28;20844;-61
2023/07/28 10:28:00;;;;;;;3.38;3.08;;;;;;;;;;5035563;28;20419;-61
2023/07/28 10:30:27;;;;;;;3.50;3.20;;;;;;;;;;5032617;28;20423;-61
2023/07/28 10:32:56;;;;;;;4.00;3.58;;;;;;;;;;5040286;28;20481;-60
2023/07/28 10:35:24;;;;;;;7.75;5.20;;;;;;;;;;5038623;28;20469;-63
2023/07/28 10:37:51;;;;;;;6.88;5.93;;;;;;;;;;5038344;28;20469;-62
2023/07/28 10:40:25;;;;;;;7.57;5.38;;;;;;;;;;5030553;28;20427;-63
2023/07/28 10:42:53;;;;;;;5.47;4.83;;;;;;;;;;5039435;28;20415;-64
2023/07/28 10:45:20;;;;;;;4.97;4.10;;;;;;;;;;5038553;28;20828;-61
2023/07/28 10:47:47;;;;;;;4.80;3.80;;;;;;;;;;5041626;28;20417;-62
2023/07/28 10:50:16;;;;;;;4.18;3.50;;;;;;;;;;5044125;28;20417;-63
2023/07/28 10:52:43;;;;;;;4.07;3.42;;;;;;;;;;5046783;28;20521;-63
2023/07/28 10:55:14;;;;;;;5.07;3.77;;;;;;;;;;5029984;28;20418;-64
2023/07/28 10:57:42;;;;;;;4.30;3.45;;;;;;;;;;5039150;28;20448;-64
2023/07/28 11:00:09;;;;;;;3.78;3.05;;;;;;;;;;5030810;28;20419;-64
2023/07/28 11:02:38;;;;;;;4.40;3.10;;;;;;;;;;5037572;28;20419;-64
2023/07/28 11:05:07;;;;;;;4.45;2.90;;;;;;;;;;5033362;28;20423;-64
2023/07/28 11:07:35;;;;;;;3.88;3.13;;;;;;;;;;5034188;28;20429;-64
2023/07/28 11:10:03;;;;;;;3.85;2.45;;;;;;;;;;5038514;28;20410;-65
2023/07/28 11:12:31;;;;;;;3.78;2.58;;;;;;;;;;5033755;28;20522;-65
2023/07/28 11:14:58;;;;;;;3.20;2.30;;;;;;;;;;5036424;28;20417;-65
2023/07/28 11:17:27;;;;;;;3.08;2.40;;;;;;;;;;5044950;28;20820;-64
2023/07/28 11:19:54;;;;;;;2.65;2.45;;;;;;;;;;5047178;28;20504;-65
2023/07/28 11:22:21;;;;;;;2.90;2.50;;;;;;;;;;5035582;28;20412;-67
2023/07/28 11:24:53;;;;;;;3.38;2.30;;;;;;;;;;5041288;28;20954;-66
2023/07/28 11:27:20;;;;;;;3.40;2.20;;;;;;;;;;5035069;28;20431;-64
2023/07/28 11:29:48;;;;;;;3.17;1.88;;;;;;;;;;5044806;28;20413;-66
2023/07/28 11:32:17;;;;;;;2.33;1.77;;;;;;;;;;5044741;28;20459;-66
2023/07/28 11:34:44;;;;;;;3.17;1.70;;;;;;;;;;5038497;28;20415;-65
2023/07/28 11:37:12;;;;;;;2.65;1.83;;;;;;;;;;5038393;28;20447;-64
2023/07/28 11:39:40;;;;;;;2.72;2.00;;;;;;;;;;5037741;28;20434;-64
2023/07/28 11:42:09;;;;;;;3.05;1.95;;;;;;;;;;5043438;28;20502;-65
2023/07/28 11:44:36;;;;;;;3.30;1.77;;;;;;;;;;5038320;28;20419;-65
2023/07/28 11:47:05;;;;;;;2.30;1.73;;;;;;;;;;5041509;28;20413;-66
2023/07/28 11:49:32;;;;;;;2.08;1.58;;;;;;;;;;5040452;28;20780;-66
2023/07/28 11:52:00;;;;;;;3.85;1.80;;;;;;;;;;5044699;28;20487;-64
2023/07/28 11:54:28;;;;;;;1.60;1.50;;;;;;;;;;5039469;28;20425;-66
2023/07/28 11:56:56;;;;;;;2.57;1.63;;;;;;;;;;5042829;28;20450;-65
2023/07/28 11:59:25;;;;;;;1.73;1.60;;;;;;;;;;5038606;28;20415;-65
2023/07/28 12:01:59;;;;;;;2.97;1.80;;;;;;;;;;5031499;28;20469;-65
2023/07/28 12:04:26;;;;;;;2.50;1.80;;;;;;;;;;5037352;28;20471;-65
2023/07/28 12:07:03;;;;;;;3.25;1.80;;;;;;;;;;5039976;28;20773;-65
2023/07/28 12:09:30;;;;;;;1.75;1.65;;;;;;;;;;5034792;28;20413;-64
2023/07/28 12:11:59;;;;;;;3.83;1.70;;;;;;;;;;5037651;28;20423;-64
2023/07/28 12:14:34;;;;;;;3.50;1.63;;;;;;;;;;5043419;28;20508;-66
2023/07/28 12:17:02;;;;;;;3.33;1.60;;;;;;;;;;5039084;28;20443;-65
2023/07/28 12:19:29;;;;;;;2.33;1.45;;;;;;;;;;5039819;28;20438;-65
2023/07/28 12:21:56;;;;;;;2.30;1.52;;;;;;;;;;5040884;28;20420;-66
2023/07/28 12:24:24;;;;;;;1.58;1.48;;;;;;;;;;5036151;28;20524;-65
2023/07/28 12:26:52;;;;;;;2.80;1.45;;;;;;;;;;5039895;28;20423;-65
2023/07/28 12:29:19;;;;;;;1.58;1.30;;;;;;;;;;5042108;28;20463;-63
2023/07/28 12:31:47;;;;;;;1.10;1.00;;;;;;;;;;5043842;28;20430;-64
2023/07/28 12:34:14;;;;;;;2.40;1.13;;;;;;;;;;5038211;28;20425;-63
2023/07/28 12:36:41;;;;;;;1.10;1.00;;;;;;;;;;5038648;28;20472;-63
2023/07/28 12:39:08;;;;;;;1.50;1.00;;;;;;;;;;5038341;28;20424;-64
2023/07/28 12:41:35;;;;;;;1.50;0.90;;;;;;;;;;5041329;28;20430;-65
2023/07/28 12:44:02;;;;;;;1.80;0.80;;;;;;;;;;5038346;28;20955;-64
2023/07/28 12:46:30;;;;;;;1.00;0.77;;;;;;;;;;5037696;28;20427;-63
2023/07/28 12:48:58;;;;;;;1.98;1.00;;;;;;;;;;5043809;28;20506;-64
2023/07/28 12:51:25;;;;;;;1.80;0.70;;;;;;;;;;5043518;28;20445;-65
2023/07/28 12:53:52;;;;;;;0.70;0.70;;;;;;;;;;5036120;28;20889;-64
2023/07/28 12:56:19;;;;;;;0.75;0.60;;;;;;;;;;5038717;28;20415;-62
2023/07/28 12:58:46;;;;;;;2.17;0.83;;;;;;;;;;5037287;28;20809;-61
2023/07/28 13:01:13;;;;;;;1.17;0.88;;;;;;;;;;5039681;28;20413;-62
2023/07/28 13:03:40;;;;;;;2.58;0.77;;;;;;;;;;5036850;28;20465;-66
2023/07/28 13:06:09;;;;;;;1.30;0.80;;;;;;;;;;5035678;28;20926;-66
2023/07/28 13:08:36;;;;;;;1.50;0.70;;;;;;;;;;5036944;28;20485;-66
2023/07/28 13:11:03;;;;;;;1.33;0.60;;;;;;;;;;5040557;28;20424;-67
2023/07/28 13:13:30;;;;;;;0.80;0.70;;;;;;;;;;5036948;28;20429;-65
2023/07/28 13:15:57;;;;;;;1.55;0.65;;;;;;;;;;5039661;28;20415;-65
2023/07/28 13:18:25;;;;;;;1.08;0.80;;;;;;;;;;5042491;28;20417;-65
2023/07/28 13:20:52;;;;;;;1.40;1.00;;;;;;;;;;5041636;28;20415;-64
2023/07/28 13:23:20;;;;;;;1.55;1.10;;;;;;;;;;5043092;28;20942;-64
2023/07/28 13:25:47;;;;;;;1.50;1.20;;;;;;;;;;5038968;28;20420;-64
2023/07/28 13:28:15;;;;;;;2.40;2.05;;;;;;;;;;5040986;28;20409;-65
2023/07/28 13:30:42;;;;;;;2.45;2.03;;;;;;;;;;5039479;28;20940;-66
2023/07/28 13:33:09;;;;;;;2.90;2.47;;;;;;;;;;5034875;28;20434;-66
2023/07/28 13:35:36;;;;;;;2.20;2.03;;;;;;;;;;5028501;28;20474;-65
2023/07/28 13:38:03;;;;;;;2.17;1.85;;;;;;;;;;5042633;28;20421;-66
2023/07/28 13:40:31;;;;;;;2.10;1.90;;;;;;;;;;5044432;28;20435;-67
2023/07/28 13:42:58;;;;;;;1.50;1.40;;;;;;;;;;5043201;28;20411;-66
2023/07/28 13:45:25;;;;;;;2.17;1.20;;;;;;;;;;5037856;28;20911;-65
2023/07/28 13:47:52;;;;;;;1.43;1.13;;;;;;;;;;5045716;28;20488;-64
2023/07/28 13:50:19;;;;;;;1.50;1.40;;;;;;;;;;5039491;28;20499;-64
2023/07/28 13:52:46;;;;;;;1.65;1.55;;;;;;;;;;5039500;28;20907;-65
2023/07/28 13:55:13;;;;;;;2.30;1.40;;;;;;;;;;5034676;28;20423;-64
2023/07/28 13:57:42;;;;;;;2.30;1.10;;;;;;;;;;5038578;28;20484;-66
2023/07/28 14:00:09;;;;;;;1.70;1.17;;;;;;;;;;5040841;28;20431;-63
2023/07/28 14:02:36;;;;;;;1.48;1.20;;;;;;;;;;5044074;28;20844;-64
2023/07/28 14:05:04;;;;;;;1.30;1.10;;;;;;;;;;5037573;28;20419;-63
2023/07/28 14:07:31;;;;;;;1.15;0.90;;;;;;;;;;5041927;28;21027;-63
2023/07/28 14:09:58;;;;;;;1.05;0.70;;;;;;;;;;5038602;28;20497;-63
2023/07/28 14:12:25;;;;;;;1.30;0.70;;;;;;;;;;5041792;28;20487;-64
2023/07/28 14:14:53;;;;;;;1.20;0.68;;;;;;;;;;5036609;28;20423;-63
2023/07/28 14:17:20;;;;;;;1.33;0.80;;;;;;;;;;5044074;28;20469;-63
2023/07/28 14:19:47;;;;;;;1.93;0.80;;;;;;;;;;5046423;28;21008;-63
2023/07/28 14:22:14;;;;;;;1.10;0.70;;;;;;;;;;5038224;28;20415;-62
2023/07/28 14:24:41;;;;;;;1.58;0.80;;;;;;;;;;5042561;28;21022;-63
2023/07/28 14:27:08;;;;;;;2.22;0.85;;;;;;;;;;5046776;28;20409;-62
2023/07/28 14:29:35;;;;;;;1.20;0.75;;;;;;;;;;5048397;28;20447;-63
2023/07/28 14:32:03;;;;;;;1.73;0.70;;;;;;;;;;5044613;28;20417;-65
2023/07/28 14:34:30;;;;;;;3.03;1.20;;;;;;;;;;5033919;28;20419;-63
2023/07/28 14:36:57;;;;;;;1.40;1.10;;;;;;;;;;5042405;28;20413;-63
2023/07/28 14:39:24;;;;;;;2.30;1.02;;;;;;;;;;5040934;28;20486;-58
2023/07/28 14:41:51;;;;;;;2.17;1.02;;;;;;;;;;5038657;28;20421;-58